createdAt,value
2019-05-19T00:01:30.886Z,2.40
2019-05-19T00:04:00.048Z,3.17
2019-05-19T00:06:29.305Z,2.57
2019-05-19T00:08:58.351Z,2.10
2019-05-19T00:11:27.286Z,2.30
2019-05-19T00:13:56.532Z,2.40
2019-05-19T00:16:25.431Z,2.00
2019-05-19T00:18:54.289Z,2.87
2019-05-19T00:21:23.608Z,2.73
2019-05-19T00:23:52.649Z,2.77
2019-05-19T00:26:21.899Z,2.43
2019-05-19T00:28:51.090Z,5.03
2019-05-19T00:31:20.000Z,2.43
2019-05-19T00:33:48.936Z,1.90
2019-05-19T00:36:19.610Z,2.47
2019-05-19T00:38:48.751Z,2.33
2019-05-19T00:41:17.652Z,2.53
2019-05-19T00:43:46.891Z,3.70
2019-05-19T00:46:15.895Z,3.30
2019-05-19T00:48:44.919Z,2.97
2019-05-19T00:51:14.474Z,2.33
2019-05-19T00:53:43.831Z,2.30
2019-05-19T00:56:13.078Z,2.53
2019-05-19T00:58:43.338Z,2.30
2019-05-19T01:01:12.283Z,2.40
2019-05-19T01:03:41.238Z,2.60
2019-05-19T01:06:10.727Z,2.60
2019-05-19T01:08:39.697Z,2.67
2019-05-19T01:11:08.726Z,2.63
2019-05-19T01:13:37.682Z,4.27
2019-05-19T01:16:06.751Z,2.77
2019-05-19T01:18:36.132Z,2.50
2019-05-19T01:21:05.325Z,3.60
2019-05-19T01:23:34.287Z,3.23
2019-05-19T01:26:03.300Z,2.17
2019-05-19T01:28:32.290Z,2.43
2019-05-19T01:31:01.680Z,2.23
2019-05-19T01:33:31.295Z,2.73
2019-05-19T01:36:00.225Z,2.83
2019-05-19T01:38:29.184Z,2.87
2019-05-19T01:40:59.074Z,2.57
2019-05-19T01:43:28.057Z,4.67
2019-05-19T01:45:57.269Z,2.60
2019-05-19T01:48:28.008Z,4.00
2019-05-19T01:50:57.091Z,3.70
2019-05-19T01:53:26.688Z,3.40
2019-05-19T01:55:55.674Z,2.60
2019-05-19T01:58:25.000Z,2.33
2019-05-19T02:00:54.556Z,2.60
2019-05-19T02:03:23.622Z,3.20
2019-05-19T02:05:52.743Z,2.50
2019-05-19T02:08:21.729Z,2.67
2019-05-19T02:10:51.008Z,3.53
2019-05-19T02:13:19.929Z,4.90
2019-05-19T02:15:48.924Z,3.23
2019-05-19T02:18:17.973Z,3.57
2019-05-19T02:20:47.224Z,3.00
2019-05-19T02:23:16.591Z,3.60
2019-05-19T02:25:45.563Z,3.50
2019-05-19T02:28:14.611Z,4.10
2019-05-19T02:30:43.581Z,3.60
2019-05-19T02:33:12.562Z,3.50
2019-05-19T02:35:41.513Z,3.90
2019-05-19T02:38:10.472Z,3.63
2019-05-19T02:40:41.100Z,4.50
2019-05-19T02:43:10.876Z,4.40
2019-05-19T02:45:40.364Z,3.80
2019-05-19T02:48:11.584Z,3.90
2019-05-19T02:50:51.741Z,3.63
2019-05-19T02:53:12.730Z,5.57
2019-05-19T02:55:42.171Z,4.30
2019-05-19T02:58:13.233Z,4.10
2019-05-19T03:00:43.572Z,4.27
2019-05-19T03:03:12.713Z,4.50
2019-05-19T03:05:41.827Z,4.43
2019-05-19T03:08:10.872Z,5.60
2019-05-19T03:10:39.723Z,4.90
2019-05-19T03:13:09.119Z,4.63
2019-05-19T03:15:38.069Z,6.57
2019-05-19T03:18:07.198Z,6.00
2019-05-19T03:20:36.145Z,6.63
2019-05-19T03:23:05.076Z,6.30
2019-05-19T03:25:34.639Z,8.63
2019-05-19T03:28:03.556Z,6.73
2019-05-19T03:30:41.318Z,7.70
2019-05-19T03:33:10.922Z,6.67
2019-05-19T03:35:39.867Z,6.43
2019-05-19T03:38:09.026Z,6.13
2019-05-19T03:40:38.232Z,5.87
2019-05-19T03:43:07.276Z,5.67
2019-05-19T03:45:36.197Z,4.90
2019-05-19T03:48:05.324Z,5.97
2019-05-19T03:50:34.579Z,6.27
2019-05-19T03:53:03.533Z,4.83
2019-05-19T03:55:32.543Z,5.50
2019-05-19T03:58:01.539Z,5.87
2019-05-19T04:00:31.076Z,5.33
2019-05-19T04:03:00.130Z,7.40
2019-05-19T04:05:29.148Z,6.43
2019-05-19T04:07:58.406Z,5.40
2019-05-19T04:10:27.365Z,5.93
2019-05-19T04:12:56.465Z,5.57
2019-05-19T04:15:25.689Z,5.37
2019-05-19T04:17:55.057Z,4.57
2019-05-19T04:20:24.370Z,5.27
2019-05-19T04:22:53.226Z,5.77
2019-05-19T04:25:22.308Z,5.37
2019-05-19T04:27:51.270Z,5.33
2019-05-19T04:30:20.375Z,4.77
2019-05-19T04:32:49.624Z,5.23
2019-05-19T04:35:18.684Z,5.00
2019-05-19T04:37:47.544Z,5.17
2019-05-19T04:40:16.538Z,4.90
2019-05-19T04:42:45.450Z,5.43
2019-05-19T04:45:14.852Z,7.03
2019-05-19T04:47:44.197Z,5.60
2019-05-19T04:50:13.290Z,4.93
2019-05-19T04:52:42.239Z,5.50
2019-05-19T04:55:11.230Z,4.50
2019-05-19T04:57:40.620Z,4.40
2019-05-19T05:00:09.891Z,4.73
2019-05-19T05:02:39.284Z,5.17
2019-05-19T05:05:09.249Z,4.80
2019-05-19T05:07:38.117Z,4.20
2019-05-19T05:10:08.094Z,5.42
2019-05-19T05:12:37.065Z,5.33
2019-05-19T05:15:06.125Z,5.33
2019-05-19T05:17:35.799Z,5.27
2019-05-19T05:20:05.204Z,5.80
2019-05-19T05:22:34.127Z,5.43
2019-05-19T05:25:03.097Z,5.63
2019-05-19T05:27:32.439Z,5.50
2019-05-19T05:30:01.413Z,5.50
2019-05-19T05:32:30.794Z,5.77
2019-05-19T05:34:59.776Z,6.30
2019-05-19T05:37:28.687Z,5.77
2019-05-19T05:39:57.582Z,6.00
2019-05-19T05:42:26.710Z,6.23
2019-05-19T05:44:55.786Z,5.70
2019-05-19T05:47:24.763Z,6.67
2019-05-19T05:49:53.878Z,6.27
2019-05-19T05:52:36.099Z,6.13
2019-05-19T05:54:53.297Z,5.67
2019-05-19T05:57:22.462Z,6.57
2019-05-19T05:59:51.708Z,5.80
2019-05-19T06:02:20.609Z,5.73
2019-05-19T06:04:49.492Z,6.97
2019-05-19T06:07:19.336Z,6.27
2019-05-19T06:09:48.656Z,5.70
2019-05-19T06:12:17.578Z,5.90
2019-05-19T06:14:46.522Z,6.77
2019-05-19T06:17:15.418Z,7.30
2019-05-19T06:19:44.342Z,6.80
2019-05-19T06:22:13.281Z,7.53
2019-05-19T06:24:42.254Z,6.83
2019-05-19T06:27:11.278Z,8.23
2019-05-19T06:29:40.516Z,7.33
2019-05-19T06:32:17.096Z,7.53
2019-05-19T06:34:46.274Z,6.80
2019-05-19T06:37:15.239Z,6.83
2019-05-19T06:39:44.454Z,5.83
2019-05-19T06:42:13.405Z,8.73
2019-05-19T06:44:42.367Z,9.50
2019-05-19T06:47:12.806Z,9.20
2019-05-19T06:49:41.991Z,9.07
2019-05-19T06:52:10.934Z,9.23
2019-05-19T06:54:39.822Z,10.60
2019-05-19T06:57:08.816Z,12.13
2019-05-19T06:59:38.352Z,10.47
2019-05-19T07:02:07.506Z,11.43
2019-05-19T07:04:36.389Z,12.03
2019-05-19T07:07:05.381Z,12.43
2019-05-19T07:09:34.423Z,11.53
2019-05-19T07:12:03.508Z,11.20
2019-05-19T07:14:32.709Z,10.77
2019-05-19T07:17:02.005Z,9.87
2019-05-19T07:19:31.415Z,10.17
2019-05-19T07:22:00.624Z,9.30
2019-05-19T07:24:29.724Z,10.43
2019-05-19T07:26:59.141Z,9.53
2019-05-19T07:29:28.066Z,9.23
2019-05-19T07:31:56.984Z,8.67
2019-05-19T07:34:26.343Z,10.47
2019-05-19T07:36:55.279Z,9.27
2019-05-19T07:39:24.143Z,7.93
2019-05-19T07:41:53.071Z,9.57
2019-05-19T07:44:22.290Z,10.17
2019-05-19T07:46:51.266Z,8.70
2019-05-19T07:49:20.122Z,9.73
2019-05-19T07:51:49.167Z,8.50
2019-05-19T07:54:18.328Z,9.10
2019-05-19T07:56:47.296Z,10.83
2019-05-19T07:59:16.312Z,8.67
2019-05-19T08:01:45.139Z,8.90
2019-05-19T08:04:14.561Z,9.70
2019-05-19T08:06:43.647Z,8.33
2019-05-19T08:09:12.707Z,8.50
2019-05-19T08:11:42.046Z,7.50
2019-05-19T08:14:11.203Z,8.07
2019-05-19T08:16:40.132Z,8.50
2019-05-19T08:19:09.091Z,8.87
2019-05-19T08:21:38.227Z,8.90
2019-05-19T08:24:07.235Z,8.27
2019-05-19T08:26:36.239Z,9.13
2019-05-19T08:29:05.253Z,7.30
2019-05-19T08:31:34.158Z,8.30
2019-05-19T08:34:03.110Z,7.50
2019-05-19T08:36:32.057Z,5.80
2019-05-19T08:39:01.396Z,8.30
2019-05-19T08:41:30.480Z,8.17
2019-05-19T08:43:59.391Z,8.17
2019-05-19T08:46:28.359Z,7.77
2019-05-19T08:48:58.561Z,7.33
2019-05-19T08:51:28.065Z,7.57
2019-05-19T08:53:57.093Z,7.90
2019-05-19T08:56:26.226Z,8.03
2019-05-19T08:58:55.113Z,7.70
2019-05-19T09:01:24.034Z,6.50
2019-05-19T09:03:52.987Z,8.27
2019-05-19T09:06:22.240Z,7.83
2019-05-19T09:08:51.316Z,7.43
2019-05-19T09:11:20.503Z,7.50
2019-05-19T09:13:49.818Z,7.13
2019-05-19T09:16:19.147Z,7.17
2019-05-19T09:18:48.422Z,6.90
2019-05-19T09:21:17.545Z,6.33
2019-05-19T09:23:46.633Z,7.37
2019-05-19T09:26:16.046Z,8.07
2019-05-19T09:28:45.266Z,6.07
2019-05-19T09:31:14.123Z,6.83
2019-05-19T09:33:43.409Z,7.53
2019-05-19T09:36:12.386Z,6.67
2019-05-19T09:38:41.471Z,5.13
2019-05-19T09:41:10.434Z,4.93
2019-05-19T09:43:39.790Z,6.27
2019-05-19T09:46:08.751Z,6.47
2019-05-19T09:48:37.807Z,5.03
2019-05-19T09:51:06.887Z,5.60
2019-05-19T09:53:35.955Z,5.60
2019-05-19T09:56:05.073Z,5.13
2019-05-19T09:58:34.213Z,5.83
2019-05-19T10:01:03.187Z,6.07
2019-05-19T10:03:32.545Z,5.13
2019-05-19T10:06:01.397Z,5.50
2019-05-19T10:08:33.529Z,6.27
2019-05-19T10:11:16.659Z,5.33
2019-05-19T10:13:46.106Z,5.90
2019-05-19T10:16:15.335Z,4.60
2019-05-19T10:18:44.407Z,5.37
2019-05-19T10:21:14.029Z,5.20
2019-05-19T10:23:43.182Z,4.87
2019-05-19T10:26:12.231Z,5.40
2019-05-19T10:28:41.521Z,5.40
2019-05-19T10:31:10.705Z,5.37
2019-05-19T10:33:40.050Z,5.10
2019-05-19T10:36:09.047Z,5.90
2019-05-19T10:38:38.148Z,5.60
2019-05-19T10:41:07.158Z,5.10
2019-05-19T10:43:36.959Z,4.37
2019-05-19T10:46:05.987Z,4.93
2019-05-19T10:48:35.074Z,4.63
2019-05-19T10:51:03.995Z,6.43
2019-05-19T10:53:33.042Z,4.13
2019-05-19T10:56:02.592Z,4.57
2019-05-19T10:58:31.864Z,5.43
2019-05-19T11:01:00.976Z,4.83
2019-05-19T11:03:30.026Z,5.10
2019-05-19T11:05:59.047Z,4.77
2019-05-19T11:08:28.222Z,4.47
2019-05-19T11:10:57.409Z,4.23
2019-05-19T11:13:26.323Z,4.53
2019-05-19T11:15:55.793Z,4.93
2019-05-19T11:18:25.066Z,5.50
2019-05-19T11:20:54.128Z,6.23
2019-05-19T11:23:23.164Z,3.97
2019-05-19T11:25:52.060Z,5.57
2019-05-19T11:28:21.169Z,5.77
2019-05-19T11:30:50.270Z,5.93
2019-05-19T11:33:19.306Z,5.27
2019-05-19T11:35:48.290Z,4.97
2019-05-19T11:38:17.367Z,4.03
2019-05-19T11:40:46.344Z,4.20
2019-05-19T11:43:15.442Z,4.93
2019-05-19T11:45:44.452Z,5.67
2019-05-19T11:48:13.727Z,4.90
2019-05-19T11:50:42.774Z,4.80
2019-05-19T11:53:12.105Z,6.03
2019-05-19T11:55:41.414Z,4.87
2019-05-19T11:58:10.486Z,4.87
2019-05-19T12:00:39.455Z,4.80
2019-05-19T12:03:08.542Z,3.83
2019-05-19T12:05:37.832Z,5.47
2019-05-19T12:08:06.799Z,3.97
2019-05-19T12:10:35.833Z,4.60
2019-05-19T12:13:04.784Z,4.50
2019-05-19T12:15:33.845Z,4.33
2019-05-19T12:18:02.872Z,5.10
2019-05-19T12:20:32.255Z,4.23
2019-05-19T12:23:01.151Z,4.60
2019-05-19T12:25:30.088Z,4.13
2019-05-19T12:27:59.051Z,3.63
2019-05-19T12:30:28.126Z,3.63
2019-05-19T12:32:59.321Z,4.10
2019-05-19T12:35:27.960Z,4.23
2019-05-19T12:37:56.898Z,3.50
2019-05-19T12:40:25.773Z,3.00
2019-05-19T12:42:54.718Z,3.30
2019-05-19T12:45:23.735Z,4.13
2019-05-19T12:47:53.059Z,4.03
2019-05-19T12:50:22.317Z,5.07
2019-05-19T12:52:51.527Z,2.40
2019-05-19T12:55:20.563Z,1.80
2019-05-19T12:57:49.859Z,3.60
2019-05-19T13:00:19.242Z,1.40
2019-05-19T13:02:48.404Z,2.37
2019-05-19T13:05:17.472Z,1.37
2019-05-19T13:07:46.544Z,1.47
2019-05-19T13:10:15.546Z,3.07
2019-05-19T13:12:45.323Z,2.70
2019-05-19T13:15:15.699Z,1.97
2019-05-19T13:17:44.709Z,1.60
2019-05-19T13:20:14.085Z,1.43
2019-05-19T13:22:43.285Z,1.90
2019-05-19T13:25:12.353Z,1.40
2019-05-19T13:27:41.658Z,2.07
2019-05-19T13:30:10.999Z,2.20
2019-05-19T13:32:39.937Z,2.07
2019-05-19T13:35:09.546Z,1.27
2019-05-19T13:37:38.533Z,5.77
2019-05-19T13:40:07.592Z,1.57
2019-05-19T13:42:36.514Z,2.80
2019-05-19T13:45:05.775Z,2.60
2019-05-19T13:47:35.249Z,1.30
2019-05-19T13:50:04.615Z,1.40
2019-05-19T13:52:33.927Z,1.20
2019-05-19T13:55:02.923Z,1.80
2019-05-19T13:57:31.927Z,3.00
2019-05-19T14:00:00.887Z,1.50
2019-05-19T14:02:29.820Z,0.93
2019-05-19T14:04:58.844Z,1.13
2019-05-19T14:07:27.878Z,2.33
2019-05-19T14:09:56.848Z,1.03
2019-05-19T14:12:25.847Z,1.20
2019-05-19T14:14:54.771Z,1.63
2019-05-19T14:17:23.620Z,1.10
2019-05-19T14:19:52.555Z,1.90
2019-05-19T14:22:22.099Z,1.30
2019-05-19T14:24:51.082Z,1.50
2019-05-19T14:27:29.207Z,2.10
2019-05-19T14:29:51.102Z,1.57
2019-05-19T14:32:20.206Z,1.00
2019-05-19T14:34:49.136Z,1.50
2019-05-19T14:37:18.331Z,1.40
2019-05-19T14:39:47.643Z,2.00
2019-05-19T14:42:35.535Z,1.40
2019-05-19T14:45:05.618Z,1.67
2019-05-19T14:47:34.938Z,1.90
2019-05-19T14:50:04.043Z,1.63
2019-05-19T14:52:32.960Z,1.33
2019-05-19T14:55:02.078Z,1.10
2019-05-19T14:57:43.813Z,0.80
2019-05-19T15:00:02.091Z,1.67
2019-05-19T15:02:31.135Z,1.10
2019-05-19T15:05:00.565Z,0.77
2019-05-19T15:07:29.713Z,1.00
2019-05-19T15:09:58.718Z,2.27
2019-05-19T15:12:27.751Z,0.93
2019-05-19T15:14:57.116Z,1.50
2019-05-19T15:17:26.142Z,1.13
2019-05-19T15:19:55.084Z,0.77
2019-05-19T15:22:24.183Z,1.40
2019-05-19T15:24:53.374Z,1.13
2019-05-19T15:27:22.277Z,1.07
2019-05-19T15:29:51.326Z,0.80
2019-05-19T15:32:20.330Z,4.40
2019-05-19T15:34:49.155Z,2.73
2019-05-19T15:37:19.171Z,1.57
2019-05-19T15:39:48.100Z,0.80
2019-05-19T15:42:16.967Z,1.10
2019-05-19T15:44:45.892Z,1.63
2019-05-19T15:47:14.850Z,1.90
2019-05-19T15:49:43.828Z,1.03
2019-05-19T15:52:12.789Z,1.00
2019-05-19T15:54:41.791Z,1.00
2019-05-19T15:57:10.635Z,1.27
2019-05-19T15:59:39.823Z,0.90
2019-05-19T16:02:08.784Z,2.07
2019-05-19T16:04:37.971Z,1.10
2019-05-19T16:07:07.241Z,2.00
2019-05-19T16:09:36.365Z,0.70
2019-05-19T16:12:05.423Z,1.13
2019-05-19T16:14:34.431Z,1.20
2019-05-19T16:17:03.424Z,1.57
2019-05-19T16:19:32.474Z,1.30
2019-05-19T16:22:01.357Z,2.30
2019-05-19T16:24:30.471Z,1.70
2019-05-19T16:26:59.473Z,1.33
2019-05-19T16:29:28.282Z,1.30
2019-05-19T16:31:57.192Z,1.73
2019-05-19T16:34:26.457Z,1.70
2019-05-19T16:36:55.339Z,1.67
2019-05-19T16:39:24.396Z,2.30
2019-05-19T16:41:53.397Z,2.60
2019-05-19T16:44:22.744Z,1.23
2019-05-19T16:46:51.597Z,1.30
2019-05-19T16:49:20.822Z,1.90
2019-05-19T16:51:49.848Z,3.33
2019-05-19T16:54:24.173Z,1.63
2019-05-19T16:56:53.429Z,1.33
2019-05-19T16:59:22.390Z,1.43
2019-05-19T17:01:51.272Z,1.07
2019-05-19T17:04:20.523Z,1.30
2019-05-19T17:06:49.550Z,1.30
2019-05-19T17:09:18.736Z,1.20
2019-05-19T17:11:47.799Z,0.90
2019-05-19T17:14:16.723Z,1.47
2019-05-19T17:16:46.099Z,1.17
2019-05-19T17:19:15.075Z,1.50
2019-05-19T17:21:44.007Z,2.33
2019-05-19T17:24:13.235Z,2.50
2019-05-19T17:26:42.360Z,1.07
2019-05-19T17:29:11.388Z,1.27
2019-05-19T17:31:40.395Z,1.47
2019-05-19T17:34:09.320Z,1.63
2019-05-19T17:36:38.252Z,2.40
2019-05-19T17:39:07.624Z,1.33
2019-05-19T17:41:36.683Z,1.40
2019-05-19T17:44:05.718Z,1.70
2019-05-19T17:46:34.770Z,1.80
2019-05-19T17:49:04.159Z,1.30
2019-05-19T17:51:32.980Z,1.40
2019-05-19T17:54:01.902Z,1.83
2019-05-19T17:56:32.462Z,1.40
2019-05-19T17:59:15.842Z,1.43
2019-05-19T18:01:33.310Z,1.50
2019-05-19T18:04:02.518Z,1.77
2019-05-19T18:06:31.687Z,1.40
2019-05-19T18:09:00.857Z,1.87
2019-05-19T18:11:29.732Z,1.47
2019-05-19T18:13:58.607Z,1.80
2019-05-19T18:16:27.606Z,1.83
2019-05-19T18:18:56.506Z,2.23
2019-05-19T18:21:25.395Z,2.13
2019-05-19T18:23:54.669Z,1.67
2019-05-19T18:26:23.596Z,2.30
2019-05-19T18:28:52.815Z,1.70
2019-05-19T18:31:21.766Z,1.73
2019-05-19T18:33:50.925Z,1.80
2019-05-19T18:36:20.403Z,1.80
2019-05-19T18:38:49.934Z,2.33
2019-05-19T18:41:18.857Z,1.73
2019-05-19T18:43:48.113Z,1.70
2019-05-19T18:46:17.423Z,3.33
2019-05-19T18:48:46.958Z,2.20
2019-05-19T18:51:16.224Z,1.80
2019-05-19T18:53:45.333Z,2.30
2019-05-19T18:56:14.284Z,1.90
2019-05-19T18:58:43.375Z,3.03
2019-05-19T19:01:12.262Z,2.10
2019-05-19T19:03:41.291Z,2.20
2019-05-19T19:06:10.510Z,2.20
2019-05-19T19:08:40.123Z,3.97
2019-05-19T19:11:09.162Z,3.90
2019-05-19T19:13:38.208Z,2.30
2019-05-19T19:16:07.123Z,2.93
2019-05-19T19:18:36.382Z,2.27
2019-05-19T19:21:05.881Z,3.37
2019-05-19T19:23:34.820Z,2.27
2019-05-19T19:26:03.928Z,2.83
2019-05-19T19:28:32.818Z,2.37
2019-05-19T19:31:01.806Z,2.47
2019-05-19T19:33:30.980Z,2.63
2019-05-19T19:36:00.315Z,2.20
2019-05-19T19:38:29.244Z,2.63
2019-05-19T19:40:58.427Z,2.60
2019-05-19T19:43:27.680Z,2.97
2019-05-19T19:45:56.700Z,2.60
2019-05-19T19:48:25.583Z,3.57
2019-05-19T19:50:54.586Z,2.53
2019-05-19T19:53:23.568Z,3.47
2019-05-19T19:55:52.607Z,2.60
2019-05-19T19:58:21.615Z,2.27
2019-05-19T20:00:50.649Z,2.83
2019-05-19T20:03:19.594Z,3.43
2019-05-19T20:05:48.831Z,2.37
2019-05-19T20:08:17.630Z,2.90
2019-05-19T20:10:46.499Z,1.90
2019-05-19T20:13:15.462Z,3.73
2019-05-19T20:15:44.284Z,2.30
2019-05-19T20:18:13.558Z,2.37
2019-05-19T20:20:42.500Z,1.87
2019-05-19T20:23:11.455Z,3.23
2019-05-19T20:25:40.819Z,4.37
2019-05-19T20:28:10.088Z,2.90
2019-05-19T20:30:39.206Z,2.47
2019-05-19T20:33:08.250Z,2.90
2019-05-19T20:35:37.531Z,2.53
2019-05-19T20:38:06.629Z,3.80
2019-05-19T20:40:35.662Z,5.13
2019-05-19T20:43:04.909Z,3.03
2019-05-19T20:45:34.263Z,2.90
2019-05-19T20:48:03.312Z,2.47
2019-05-19T20:50:32.251Z,3.13
2019-05-19T20:53:01.265Z,4.13
2019-05-19T20:55:30.168Z,2.77
2019-05-19T20:57:59.006Z,3.00
2019-05-19T21:00:28.201Z,3.03
2019-05-19T21:02:57.599Z,3.20
2019-05-19T21:05:27.648Z,3.13
2019-05-19T21:07:57.245Z,2.77
2019-05-19T21:10:26.261Z,3.13
2019-05-19T21:12:57.477Z,3.43
2019-05-19T21:15:25.996Z,4.20
2019-05-19T21:17:54.932Z,3.70
2019-05-19T21:20:24.265Z,3.90
2019-05-19T21:22:53.638Z,4.47
2019-05-19T21:25:22.650Z,3.90
2019-05-19T21:27:51.838Z,4.67
2019-05-19T21:30:20.839Z,3.77
2019-05-19T21:32:49.722Z,5.00
2019-05-19T21:35:18.719Z,4.17
2019-05-19T21:37:47.695Z,5.47
2019-05-19T21:40:16.739Z,4.23
2019-05-19T21:42:45.916Z,4.20
2019-05-19T21:45:15.103Z,4.20
2019-05-19T21:47:44.426Z,4.30
2019-05-19T21:50:13.626Z,4.37
2019-05-19T21:52:42.780Z,3.80
2019-05-19T21:55:11.805Z,5.90
2019-05-19T21:57:40.880Z,5.90
2019-05-19T22:00:12.080Z,5.53
2019-05-19T22:02:41.098Z,6.67
2019-05-19T22:05:10.802Z,5.83
2019-05-19T22:08:02.242Z,5.73
2019-05-19T22:10:31.330Z,5.73
2019-05-19T22:13:00.357Z,5.90
2019-05-19T22:15:29.650Z,6.20
2019-05-19T22:17:58.544Z,6.50
2019-05-19T22:20:27.616Z,7.50
2019-05-19T22:22:56.580Z,7.57
2019-05-19T22:25:25.584Z,7.13
2019-05-19T22:27:54.645Z,6.67
2019-05-19T22:30:23.860Z,7.30
2019-05-19T22:32:52.913Z,6.23
2019-05-19T22:35:21.981Z,5.93
2019-05-19T22:37:51.134Z,6.83
2019-05-19T22:40:20.218Z,8.47
2019-05-19T22:42:49.221Z,7.60
2019-05-19T22:45:18.594Z,9.77
2019-05-19T22:47:47.572Z,8.20
2019-05-19T22:50:16.684Z,8.40
2019-05-19T22:52:45.655Z,8.30
2019-05-19T22:55:14.695Z,10.10
2019-05-19T22:57:43.662Z,9.10
2019-05-19T23:00:15.563Z,8.77
2019-05-19T23:02:44.880Z,8.27
2019-05-19T23:05:13.862Z,8.90
2019-05-19T23:07:42.938Z,8.33
2019-05-19T23:10:12.304Z,9.40
2019-05-19T23:12:41.402Z,9.30
2019-05-19T23:15:10.714Z,10.13
2019-05-19T23:17:40.139Z,8.53
2019-05-19T23:20:09.348Z,9.37
2019-05-19T23:22:38.572Z,9.13
2019-05-19T23:25:08.262Z,9.58
2019-05-19T23:27:37.969Z,10.60
2019-05-19T23:30:08.103Z,8.10
2019-05-19T23:32:37.011Z,9.37
2019-05-19T23:35:06.224Z,9.50
2019-05-19T23:37:35.285Z,8.43
2019-05-19T23:40:04.554Z,9.03
2019-05-19T23:42:33.839Z,11.63
2019-05-19T23:45:02.846Z,12.03
2019-05-19T23:47:31.739Z,10.93
2019-05-19T23:50:00.731Z,11.60
2019-05-19T23:52:29.780Z,11.60
2019-05-19T23:54:58.783Z,11.27
2019-05-19T23:57:27.850Z,11.40
2019-05-19T23:59:56.921Z,12.23
